sensor_id;sensor_type;location;lat;lon;timestamp;temperature;humidity
3528;DHT22;1778;47.966;7.854;2023-04-29T00:00:13;14.20;99.90
3528;DHT22;1778;47.966;7.854;2023-04-29T00:01:18;14.10;99.90
3528;DHT22;1778;47.966;7.854;2023-04-29T00:02:20;14.10;99.90
3528;DHT22;1778;47.966;7.854;2023-04-29T00:03:21;14.10;99.90
3528;DHT22;1778;47.966;7.854;2023-04-29T00:04:24;14.10;99.90
3528;DHT22;1778;47.966;7.854;2023-04-29T00:05:26;14.10;99.90
3528;DHT22;1778;47.966;7.854;2023-04-29T00:06:28;14.10;99.90
3528;DHT22;1778;47.966;7.854;2023-04-29T00:07:30;14.10;99.90
3528;DHT22;1778;47.966;7.854;2023-04-29T00:08:35;14.10;99.90
3528;DHT22;1778;47.966;7.854;2023-04-29T00:09:37;14.10;99.90
3528;DHT22;1778;47.966;7.854;2023-04-29T00:10:39;14.10;99.90
3528;DHT22;1778;47.966;7.854;2023-04-29T00:11:41;14.10;99.90
3528;DHT22;1778;47.966;7.854;2023-04-29T00:12:43;14.10;99.90
3528;DHT22;1778;47.966;7.854;2023-04-29T00:13:45;14.10;99.90
3528;DHT22;1778;47.966;7.854;2023-04-29T00:14:47;14.00;99.90
3528;DHT22;1778;47.966;7.854;2023-04-29T00:15:49;14.00;99.90
3528;DHT22;1778;47.966;7.854;2023-04-29T00:16:51;14.00;99.90
3528;DHT22;1778;47.966;7.854;2023-04-29T00:17:56;14.00;99.90
3528;DHT22;1778;47.966;7.854;2023-04-29T00:18:58;14.10;99.90
3528;DHT22;1778;47.966;7.854;2023-04-29T00:20:00;14.00;99.90
3528;DHT22;1778;47.966;7.854;2023-04-29T00:21:02;14.00;99.90
3528;DHT22;1778;47.966;7.854;2023-04-29T00:22:06;14.00;99.90
3528;DHT22;1778;47.966;7.854;2023-04-29T00:23:08;14.00;99.90
3528;DHT22;1778;47.966;7.854;2023-04-29T00:24:09;14.00;99.90
3528;DHT22;1778;47.966;7.854;2023-04-29T00:25:11;14.00;99.90
3528;DHT22;1778;47.966;7.854;2023-04-29T00:26:13;14.00;99.90
3528;DHT22;1778;47.966;7.854;2023-04-29T00:27:19;14.00;99.90
3528;DHT22;1778;47.966;7.854;2023-04-29T00:28:20;14.00;99.90
3528;DHT22;1778;47.966;7.854;2023-04-29T00:29:23;14.00;99.90
3528;DHT22;1778;47.966;7.854;2023-04-29T00:30:25;14.00;99.90
3528;DHT22;1778;47.966;7.854;2023-04-29T00:31:26;14.00;99.90
3528;DHT22;1778;47.966;7.854;2023-04-29T00:32:28;13.90;99.90
3528;DHT22;1778;47.966;7.854;2023-04-29T00:33:30;13.90;99.90
3528;DHT22;1778;47.966;7.854;2023-04-29T00:34:31;14.00;99.90
3528;DHT22;1778;47.966;7.854;2023-04-29T00:35:33;14.00;99.90
3528;DHT22;1778;47.966;7.854;2023-04-29T00:36:35;14.00;99.90
3528;DHT22;1778;47.966;7.854;2023-04-29T00:37:36;13.90;99.90
3528;DHT22;1778;47.966;7.854;2023-04-29T00:38:42;13.90;99.90
3528;DHT22;1778;47.966;7.854;2023-04-29T00:39:43;13.90;99.90
3528;DHT22;1778;47.966;7.854;2023-04-29T00:40:45;13.90;99.90
3528;DHT22;1778;47.966;7.854;2023-04-29T00:41:47;13.90;99.90
3528;DHT22;1778;47.966;7.854;2023-04-29T00:42:49;14.00;99.90
3528;DHT22;1778;47.966;7.854;2023-04-29T00:43:51;13.90;99.90
3528;DHT22;1778;47.966;7.854;2023-04-29T00:44:53;14.00;99.90
3528;DHT22;1778;47.966;7.854;2023-04-29T00:45:54;13.90;99.90
3528;DHT22;1778;47.966;7.854;2023-04-29T00:46:56;13.90;99.90
3528;DHT22;1778;47.966;7.854;2023-04-29T00:47:57;13.90;99.90
3528;DHT22;1778;47.966;7.854;2023-04-29T00:49:00;13.90;99.90
3528;DHT22;1778;47.966;7.854;2023-04-29T00:50:06;13.90;99.90
3528;DHT22;1778;47.966;7.854;2023-04-29T00:51:08;13.90;99.90
3528;DHT22;1778;47.966;7.854;2023-04-29T00:52:10;13.90;99.90
3528;DHT22;1778;47.966;7.854;2023-04-29T00:53:13;13.90;99.90
3528;DHT22;1778;47.966;7.854;2023-04-29T00:54:16;13.90;99.90
3528;DHT22;1778;47.966;7.854;2023-04-29T00:55:19;13.90;99.90
3528;DHT22;1778;47.966;7.854;2023-04-29T00:56:21;13.80;99.90
3528;DHT22;1778;47.966;7.854;2023-04-29T00:57:23;13.90;99.90
3528;DHT22;1778;47.966;7.854;2023-04-29T00:58:24;13.90;99.90
3528;DHT22;1778;47.966;7.854;2023-04-29T00:59:33;13.90;99.90
3528;DHT22;1778;47.966;7.854;2023-04-29T01:00:35;13.90;99.90
3528;DHT22;1778;47.966;7.854;2023-04-29T01:01:38;13.80;99.90
3528;DHT22;1778;47.966;7.854;2023-04-29T01:02:43;13.80;99.90
3528;DHT22;1778;47.966;7.854;2023-04-29T01:03:45;13.90;99.90
3528;DHT22;1778;47.966;7.854;2023-04-29T01:04:47;13.90;99.90
3528;DHT22;1778;47.966;7.854;2023-04-29T01:05:55;13.90;99.90
3528;DHT22;1778;47.966;7.854;2023-04-29T01:08:22;13.90;99.90
3528;DHT22;1778;47.966;7.854;2023-04-29T01:10:52;13.80;99.90
3528;DHT22;1778;47.966;7.854;2023-04-29T01:12:14;13.90;99.90
3528;DHT22;1778;47.966;7.854;2023-04-29T01:13:29;13.80;99.90
3528;DHT22;1778;47.966;7.854;2023-04-29T01:14:35;13.80;99.90
3528;DHT22;1778;47.966;7.854;2023-04-29T01:16:01;13.80;99.90
3528;DHT22;1778;47.966;7.854;2023-04-29T01:17:09;13.80;99.90
3528;DHT22;1778;47.966;7.854;2023-04-29T01:18:25;13.70;99.90
3528;DHT22;1778;47.966;7.854;2023-04-29T01:19:43;13.70;99.90
3528;DHT22;1778;47.966;7.854;2023-04-29T01:20:46;13.70;99.90
3528;DHT22;1778;47.966;7.854;2023-04-29T01:21:48;13.70;99.90
3528;DHT22;1778;47.966;7.854;2023-04-29T01:22:50;13.70;99.90
3528;DHT22;1778;47.966;7.854;2023-04-29T01:23:52;13.70;99.90
3528;DHT22;1778;47.966;7.854;2023-04-29T01:24:59;13.70;99.90
3528;DHT22;1778;47.966;7.854;2023-04-29T01:26:01;13.70;99.90
3528;DHT22;1778;47.966;7.854;2023-04-29T01:27:45;13.70;99.90
3528;DHT22;1778;47.966;7.854;2023-04-29T01:29:01;13.70;99.90
3528;DHT22;1778;47.966;7.854;2023-04-29T01:31:24;13.60;99.90
3528;DHT22;1778;47.966;7.854;2023-04-29T01:32:40;13.60;99.90
3528;DHT22;1778;47.966;7.854;2023-04-29T01:37:27;13.60;99.90
3528;DHT22;1778;47.966;7.854;2023-04-29T01:38:48;13.60;99.90
3528;DHT22;1778;47.966;7.854;2023-04-29T01:41:26;13.60;99.90
3528;DHT22;1778;47.966;7.854;2023-04-29T01:42:43;13.60;99.90
3528;DHT22;1778;47.966;7.854;2023-04-29T01:43:50;13.60;99.90
3528;DHT22;1778;47.966;7.854;2023-04-29T01:44:59;13.60;99.90
3528;DHT22;1778;47.966;7.854;2023-04-29T01:46:08;13.50;99.90
3528;DHT22;1778;47.966;7.854;2023-04-29T01:47:12;13.60;99.90
3528;DHT22;1778;47.966;7.854;2023-04-29T01:48:19;13.60;99.90
3528;DHT22;1778;47.966;7.854;2023-04-29T01:49:25;13.60;99.90
3528;DHT22;1778;47.966;7.854;2023-04-29T01:50:27;13.60;99.90
3528;DHT22;1778;47.966;7.854;2023-04-29T01:51:34;13.60;99.90
3528;DHT22;1778;47.966;7.854;2023-04-29T01:52:36;13.50;99.90
3528;DHT22;1778;47.966;7.854;2023-04-29T01:53:38;13.50;99.90
3528;DHT22;1778;47.966;7.854;2023-04-29T01:54:40;13.50;99.90
3528;DHT22;1778;47.966;7.854;2023-04-29T01:55:42;13.50;99.90
3528;DHT22;1778;47.966;7.854;2023-04-29T01:57:02;13.50;99.90
3528;DHT22;1778;47.966;7.854;2023-04-29T01:58:41;13.60;99.90
3528;DHT22;1778;47.966;7.854;2023-04-29T02:00:02;13.60;99.90
3528;DHT22;1778;47.966;7.854;2023-04-29T02:01:13;13.50;99.90
3528;DHT22;1778;47.966;7.854;2023-04-29T02:02:15;13.50;99.90
3528;DHT22;1778;47.966;7.854;2023-04-29T02:03:31;13.50;99.90
3528;DHT22;1778;47.966;7.854;2023-04-29T02:04:35;13.50;99.90
3528;DHT22;1778;47.966;7.854;2023-04-29T02:05:37;13.50;99.90
3528;DHT22;1778;47.966;7.854;2023-04-29T02:06:39;13.60;99.90
3528;DHT22;1778;47.966;7.854;2023-04-29T02:07:41;13.50;99.90
3528;DHT22;1778;47.966;7.854;2023-04-29T02:08:44;13.60;99.90
3528;DHT22;1778;47.966;7.854;2023-04-29T02:09:46;13.60;99.90
3528;DHT22;1778;47.966;7.854;2023-04-29T02:11:05;13.50;99.90
3528;DHT22;1778;47.966;7.854;2023-04-29T02:12:12;13.50;99.90
3528;DHT22;1778;47.966;7.854;2023-04-29T02:13:14;13.50;99.90
3528;DHT22;1778;47.966;7.854;2023-04-29T02:14:16;13.50;99.90
3528;DHT22;1778;47.966;7.854;2023-04-29T02:15:17;13.50;99.90
3528;DHT22;1778;47.966;7.854;2023-04-29T02:16:19;13.50;99.90
3528;DHT22;1778;47.966;7.854;2023-04-29T02:17:34;13.50;99.90
3528;DHT22;1778;47.966;7.854;2023-04-29T02:18:36;13.40;99.90
3528;DHT22;1778;47.966;7.854;2023-04-29T02:19:39;13.40;99.90
3528;DHT22;1778;47.966;7.854;2023-04-29T02:20:41;13.40;99.90
3528;DHT22;1778;47.966;7.854;2023-04-29T02:21:43;13.40;99.90
3528;DHT22;1778;47.966;7.854;2023-04-29T02:22:44;13.40;99.90
3528;DHT22;1778;47.966;7.854;2023-04-29T02:23:46;13.40;99.90
3528;DHT22;1778;47.966;7.854;2023-04-29T02:24:47;13.40;99.90
3528;DHT22;1778;47.966;7.854;2023-04-29T02:25:48;13.40;99.90
3528;DHT22;1778;47.966;7.854;2023-04-29T02:26:50;13.40;99.90
3528;DHT22;1778;47.966;7.854;2023-04-29T02:27:52;13.40;99.90
3528;DHT22;1778;47.966;7.854;2023-04-29T02:28:54;13.30;99.90
3528;DHT22;1778;47.966;7.854;2023-04-29T02:29:57;13.40;99.90
3528;DHT22;1778;47.966;7.854;2023-04-29T02:30:59;13.40;99.90
3528;DHT22;1778;47.966;7.854;2023-04-29T02:32:01;13.40;99.90
3528;DHT22;1778;47.966;7.854;2023-04-29T02:33:02;13.30;99.90
3528;DHT22;1778;47.966;7.854;2023-04-29T02:34:07;13.40;99.90
3528;DHT22;1778;47.966;7.854;2023-04-29T02:35:09;13.30;99.90
3528;DHT22;1778;47.966;7.854;2023-04-29T02:36:10;13.40;99.90
3528;DHT22;1778;47.966;7.854;2023-04-29T02:37:12;13.40;99.90
3528;DHT22;1778;47.966;7.854;2023-04-29T02:38:13;13.30;99.90
3528;DHT22;1778;47.966;7.854;2023-04-29T02:39:15;13.40;99.90
3528;DHT22;1778;47.966;7.854;2023-04-29T02:40:17;13.40;99.90
3528;DHT22;1778;47.966;7.854;2023-04-29T02:41:18;13.30;99.90
3528;DHT22;1778;47.966;7.854;2023-04-29T02:42:21;13.30;99.90
3528;DHT22;1778;47.966;7.854;2023-04-29T02:43:23;13.30;99.90
3528;DHT22;1778;47.966;7.854;2023-04-29T02:44:25;13.30;99.90
3528;DHT22;1778;47.966;7.854;2023-04-29T02:45:28;13.30;99.90
3528;DHT22;1778;47.966;7.854;2023-04-29T02:46:29;13.30;99.90
3528;DHT22;1778;47.966;7.854;2023-04-29T02:47:34;13.20;99.90
3528;DHT22;1778;47.966;7.854;2023-04-29T02:48:35;13.20;99.90
3528;DHT22;1778;47.966;7.854;2023-04-29T02:49:37;13.20;99.90
3528;DHT22;1778;47.966;7.854;2023-04-29T02:50:38;13.20;99.90
3528;DHT22;1778;47.966;7.854;2023-04-29T02:51:40;13.20;99.90
3528;DHT22;1778;47.966;7.854;2023-04-29T02:52:42;13.20;99.90
3528;DHT22;1778;47.966;7.854;2023-04-29T02:53:44;13.20;99.90
3528;DHT22;1778;47.966;7.854;2023-04-29T02:54:46;13.20;99.90
3528;DHT22;1778;47.966;7.854;2023-04-29T02:55:48;13.20;99.90
3528;DHT22;1778;47.966;7.854;2023-04-29T02:56:49;13.20;99.90
3528;DHT22;1778;47.966;7.854;2023-04-29T02:57:51;13.20;99.90
3528;DHT22;1778;47.966;7.854;2023-04-29T02:58:53;13.20;99.90
3528;DHT22;1778;47.966;7.854;2023-04-29T02:59:55;13.20;99.90
3528;DHT22;1778;47.966;7.854;2023-04-29T03:00:57;13.10;99.90
3528;DHT22;1778;47.966;7.854;2023-04-29T03:01:58;13.20;99.90
3528;DHT22;1778;47.966;7.854;2023-04-29T03:03:00;13.10;99.90
3528;DHT22;1778;47.966;7.854;2023-04-29T03:04:02;13.20;99.90
3528;DHT22;1778;47.966;7.854;2023-04-29T03:05:04;13.10;99.90
3528;DHT22;1778;47.966;7.854;2023-04-29T03:06:06;13.10;99.90
3528;DHT22;1778;47.966;7.854;2023-04-29T03:07:08;13.10;99.90
3528;DHT22;1778;47.966;7.854;2023-04-29T03:08:10;13.10;99.90
3528;DHT22;1778;47.966;7.854;2023-04-29T03:09:12;13.10;99.90
3528;DHT22;1778;47.966;7.854;2023-04-29T03:10:17;13.10;99.90
3528;DHT22;1778;47.966;7.854;2023-04-29T03:11:20;13.10;99.90
3528;DHT22;1778;47.966;7.854;2023-04-29T03:12:21;13.10;99.90
3528;DHT22;1778;47.966;7.854;2023-04-29T03:13:23;13.10;99.90
3528;DHT22;1778;47.966;7.854;2023-04-29T03:14:24;13.10;99.90
3528;DHT22;1778;47.966;7.854;2023-04-29T03:15:27;13.10;99.90
3528;DHT22;1778;47.966;7.854;2023-04-29T03:16:29;13.10;99.90
3528;DHT22;1778;47.966;7.854;2023-04-29T03:17:30;13.10;99.90
3528;DHT22;1778;47.966;7.854;2023-04-29T03:18:32;13.10;99.90
3528;DHT22;1778;47.966;7.854;2023-04-29T03:19:33;13.10;99.90
3528;DHT22;1778;47.966;7.854;2023-04-29T03:20:35;13.10;99.90
3528;DHT22;1778;47.966;7.854;2023-04-29T03:21:38;13.10;99.90
3528;DHT22;1778;47.966;7.854;2023-04-29T03:22:40;13.10;99.90
3528;DHT22;1778;47.966;7.854;2023-04-29T03:23:43;13.10;99.90
3528;DHT22;1778;47.966;7.854;2023-04-29T03:24:51;13.10;99.90
3528;DHT22;1778;47.966;7.854;2023-04-29T03:25:54;13.10;99.90
3528;DHT22;1778;47.966;7.854;2023-04-29T03:26:57;13.10;99.90
3528;DHT22;1778;47.966;7.854;2023-04-29T03:28:00;13.00;99.90
3528;DHT22;1778;47.966;7.854;2023-04-29T03:29:03;13.10;99.90
3528;DHT22;1778;47.966;7.854;2023-04-29T03:30:06;13.10;99.90
3528;DHT22;1778;47.966;7.854;2023-04-29T03:31:14;13.10;99.90
3528;DHT22;1778;47.966;7.854;2023-04-29T03:32:17;13.10;99.90
3528;DHT22;1778;47.966;7.854;2023-04-29T03:33:19;13.00;99.90
3528;DHT22;1778;47.966;7.854;2023-04-29T03:34:21;13.00;99.90
3528;DHT22;1778;47.966;7.854;2023-04-29T03:35:36;13.00;99.90
3528;DHT22;1778;47.966;7.854;2023-04-29T03:37:00;13.00;99.90
3528;DHT22;1778;47.966;7.854;2023-04-29T03:38:01;13.00;99.90
3528;DHT22;1778;47.966;7.854;2023-04-29T03:39:06;12.90;99.90
3528;DHT22;1778;47.966;7.854;2023-04-29T03:40:08;12.90;99.90
3528;DHT22;1778;47.966;7.854;2023-04-29T03:41:10;12.90;99.90
3528;DHT22;1778;47.966;7.854;2023-04-29T03:42:12;12.90;99.90
3528;DHT22;1778;47.966;7.854;2023-04-29T03:43:14;12.90;99.90
3528;DHT22;1778;47.966;7.854;2023-04-29T03:44:15;12.90;99.90
3528;DHT22;1778;47.966;7.854;2023-04-29T03:45:17;12.90;99.90
3528;DHT22;1778;47.966;7.854;2023-04-29T03:46:19;12.90;99.90
3528;DHT22;1778;47.966;7.854;2023-04-29T03:47:20;12.90;99.90
3528;DHT22;1778;47.966;7.854;2023-04-29T03:48:22;12.90;99.90
3528;DHT22;1778;47.966;7.854;2023-04-29T03:49:25;12.90;99.90
3528;DHT22;1778;47.966;7.854;2023-04-29T03:50:27;12.90;99.90
3528;DHT22;1778;47.966;7.854;2023-04-29T03:51:29;12.80;99.90
3528;DHT22;1778;47.966;7.854;2023-04-29T03:52:39;12.90;99.90
3528;DHT22;1778;47.966;7.854;2023-04-29T03:53:47;12.90;99.90
3528;DHT22;1778;47.966;7.854;2023-04-29T03:54:49;12.90;99.90
3528;DHT22;1778;47.966;7.854;2023-04-29T03:55:50;12.90;99.90
3528;DHT22;1778;47.966;7.854;2023-04-29T03:56:53;12.90;99.90
3528;DHT22;1778;47.966;7.854;2023-04-29T03:57:57;12.80;99.90
3528;DHT22;1778;47.966;7.854;2023-04-29T03:58:58;12.80;99.90
3528;DHT22;1778;47.966;7.854;2023-04-29T04:00:00;12.80;99.90
3528;DHT22;1778;47.966;7.854;2023-04-29T04:01:02;12.90;99.90
3528;DHT22;1778;47.966;7.854;2023-04-29T04:02:11;12.80;99.90
3528;DHT22;1778;47.966;7.854;2023-04-29T04:03:13;12.80;99.90
3528;DHT22;1778;47.966;7.854;2023-04-29T04:04:15;12.80;99.90
3528;DHT22;1778;47.966;7.854;2023-04-29T04:05:20;12.80;99.90
3528;DHT22;1778;47.966;7.854;2023-04-29T04:06:29;12.80;99.90
3528;DHT22;1778;47.966;7.854;2023-04-29T04:07:32;12.80;99.90
3528;DHT22;1778;47.966;7.854;2023-04-29T04:08:54;12.80;99.90
3528;DHT22;1778;47.966;7.854;2023-04-29T04:10:01;12.80;99.90
3528;DHT22;1778;47.966;7.854;2023-04-29T04:11:02;12.80;99.90
3528;DHT22;1778;47.966;7.854;2023-04-29T04:12:16;12.80;99.90
3528;DHT22;1778;47.966;7.854;2023-04-29T04:13:17;12.80;99.90
3528;DHT22;1778;47.966;7.854;2023-04-29T04:14:19;12.80;99.90
3528;DHT22;1778;47.966;7.854;2023-04-29T04:15:21;12.80;99.90
3528;DHT22;1778;47.966;7.854;2023-04-29T04:16:22;12.80;99.90
3528;DHT22;1778;47.966;7.854;2023-04-29T04:17:25;12.80;99.90
3528;DHT22;1778;47.966;7.854;2023-04-29T04:18:27;12.80;99.90
3528;DHT22;1778;47.966;7.854;2023-04-29T04:19:30;12.70;99.90
3528;DHT22;1778;47.966;7.854;2023-04-29T04:20:31;12.80;99.90
3528;DHT22;1778;47.966;7.854;2023-04-29T04:21:33;12.80;99.90
3528;DHT22;1778;47.966;7.854;2023-04-29T04:22:39;12.80;99.90
3528;DHT22;1778;47.966;7.854;2023-04-29T04:23:50;12.80;99.90
3528;DHT22;1778;47.966;7.854;2023-04-29T04:24:56;12.80;99.90
3528;DHT22;1778;47.966;7.854;2023-04-29T04:25:57;12.80;99.90
3528;DHT22;1778;47.966;7.854;2023-04-29T04:27:18;12.80;99.90
3528;DHT22;1778;47.966;7.854;2023-04-29T04:28:21;12.90;99.90
3528;DHT22;1778;47.966;7.854;2023-04-29T04:29:36;12.80;99.90
3528;DHT22;1778;47.966;7.854;2023-04-29T04:30:45;12.80;99.90
3528;DHT22;1778;47.966;7.854;2023-04-29T04:31:46;12.80;99.90
3528;DHT22;1778;47.966;7.854;2023-04-29T04:32:49;12.80;99.90
3528;DHT22;1778;47.966;7.854;2023-04-29T04:33:51;12.80;99.90
3528;DHT22;1778;47.966;7.854;2023-04-29T04:34:52;12.80;99.90
3528;DHT22;1778;47.966;7.854;2023-04-29T04:35:54;12.80;99.90
3528;DHT22;1778;47.966;7.854;2023-04-29T04:36:55;12.80;99.90
3528;DHT22;1778;47.966;7.854;2023-04-29T04:37:57;12.80;99.90
3528;DHT22;1778;47.966;7.854;2023-04-29T04:38:59;12.80;99.90
3528;DHT22;1778;47.966;7.854;2023-04-29T04:40:01;12.80;99.90
3528;DHT22;1778;47.966;7.854;2023-04-29T04:41:05;12.80;99.90
3528;DHT22;1778;47.966;7.854;2023-04-29T04:42:11;12.80;99.90
3528;DHT22;1778;47.966;7.854;2023-04-29T04:43:13;12.90;99.90
3528;DHT22;1778;47.966;7.854;2023-04-29T04:44:15;12.90;99.90
3528;DHT22;1778;47.966;7.854;2023-04-29T04:45:42;12.90;99.90
3528;DHT22;1778;47.966;7.854;2023-04-29T04:46:44;13.00;99.90
3528;DHT22;1778;47.966;7.854;2023-04-29T04:47:49;13.00;99.90
3528;DHT22;1778;47.966;7.854;2023-04-29T04:48:54;13.00;99.90
3528;DHT22;1778;47.966;7.854;2023-04-29T04:49:56;13.00;99.90
3528;DHT22;1778;47.966;7.854;2023-04-29T04:50:58;13.00;99.90
3528;DHT22;1778;47.966;7.854;2023-04-29T04:52:00;13.00;99.90
3528;DHT22;1778;47.966;7.854;2023-04-29T04:53:01;13.00;99.90
3528;DHT22;1778;47.966;7.854;2023-04-29T04:54:23;13.00;99.90
3528;DHT22;1778;47.966;7.854;2023-04-29T04:55:33;13.00;99.90
3528;DHT22;1778;47.966;7.854;2023-04-29T04:56:35;13.00;99.90
3528;DHT22;1778;47.966;7.854;2023-04-29T04:57:39;13.00;99.90
3528;DHT22;1778;47.966;7.854;2023-04-29T04:58:42;13.00;99.90
3528;DHT22;1778;47.966;7.854;2023-04-29T04:59:45;13.10;99.90
3528;DHT22;1778;47.966;7.854;2023-04-29T05:00:46;13.10;99.90
3528;DHT22;1778;47.966;7.854;2023-04-29T05:01:48;13.10;99.90
3528;DHT22;1778;47.966;7.854;2023-04-29T05:02:49;13.10;99.90
3528;DHT22;1778;47.966;7.854;2023-04-29T05:03:51;13.20;99.90
3528;DHT22;1778;47.966;7.854;2023-04-29T05:04:53;13.20;99.90
3528;DHT22;1778;47.966;7.854;2023-04-29T05:05:59;13.20;99.90
3528;DHT22;1778;47.966;7.854;2023-04-29T05:07:02;13.20;99.90
3528;DHT22;1778;47.966;7.854;2023-04-29T05:08:12;13.30;99.90
3528;DHT22;1778;47.966;7.854;2023-04-29T05:09:18;13.30;99.90
3528;DHT22;1778;47.966;7.854;2023-04-29T05:10:19;13.40;99.90
3528;DHT22;1778;47.966;7.854;2023-04-29T05:11:25;13.40;99.90
3528;DHT22;1778;47.966;7.854;2023-04-29T05:12:39;13.50;99.90
3528;DHT22;1778;47.966;7.854;2023-04-29T05:13:41;13.40;99.90
3528;DHT22;1778;47.966;7.854;2023-04-29T05:14:44;13.50;99.90
3528;DHT22;1778;47.966;7.854;2023-04-29T05:15:46;13.50;99.90
3528;DHT22;1778;47.966;7.854;2023-04-29T05:17:00;13.50;99.90
3528;DHT22;1778;47.966;7.854;2023-04-29T05:18:02;13.60;99.90
3528;DHT22;1778;47.966;7.854;2023-04-29T05:19:04;13.60;99.90
3528;DHT22;1778;47.966;7.854;2023-04-29T05:20:11;13.60;99.90
3528;DHT22;1778;47.966;7.854;2023-04-29T05:21:13;13.60;99.90
3528;DHT22;1778;47.966;7.854;2023-04-29T05:22:18;13.70;99.90
3528;DHT22;1778;47.966;7.854;2023-04-29T05:23:20;13.70;99.90
3528;DHT22;1778;47.966;7.854;2023-04-29T05:24:23;13.70;99.90
3528;DHT22;1778;47.966;7.854;2023-04-29T05:25:26;13.70;99.90
3528;DHT22;1778;47.966;7.854;2023-04-29T05:26:29;13.70;99.90
3528;DHT22;1778;47.966;7.854;2023-04-29T05:27:34;13.80;99.90
3528;DHT22;1778;47.966;7.854;2023-04-29T05:28:38;13.80;99.90
3528;DHT22;1778;47.966;7.854;2023-04-29T05:29:44;13.80;99.90
3528;DHT22;1778;47.966;7.854;2023-04-29T05:30:49;13.80;99.90
3528;DHT22;1778;47.966;7.854;2023-04-29T05:31:51;13.80;99.90
3528;DHT22;1778;47.966;7.854;2023-04-29T05:32:53;13.80;99.90
3528;DHT22;1778;47.966;7.854;2023-04-29T05:33:55;13.90;99.90
3528;DHT22;1778;47.966;7.854;2023-04-29T05:34:58;13.90;99.90
3528;DHT22;1778;47.966;7.854;2023-04-29T05:36:00;13.90;99.90
3528;DHT22;1778;47.966;7.854;2023-04-29T05:37:01;13.90;99.90
3528;DHT22;1778;47.966;7.854;2023-04-29T05:38:04;13.90;99.90
3528;DHT22;1778;47.966;7.854;2023-04-29T05:39:10;13.90;99.90
3528;DHT22;1778;47.966;7.854;2023-04-29T05:40:11;13.80;99.90
3528;DHT22;1778;47.966;7.854;2023-04-29T05:41:13;13.80;99.90
3528;DHT22;1778;47.966;7.854;2023-04-29T05:42:21;13.80;99.90
3528;DHT22;1778;47.966;7.854;2023-04-29T05:43:24;13.70;99.90
3528;DHT22;1778;47.966;7.854;2023-04-29T05:44:26;13.70;99.90
3528;DHT22;1778;47.966;7.854;2023-04-29T05:45:28;13.70;99.90
3528;DHT22;1778;47.966;7.854;2023-04-29T05:46:29;13.70;99.90
3528;DHT22;1778;47.966;7.854;2023-04-29T05:47:31;13.70;99.90
3528;DHT22;1778;47.966;7.854;2023-04-29T05:48:33;13.70;99.90
3528;DHT22;1778;47.966;7.854;2023-04-29T05:49:35;13.70;99.90
3528;DHT22;1778;47.966;7.854;2023-04-29T05:50:37;13.70;99.90
3528;DHT22;1778;47.966;7.854;2023-04-29T05:51:39;13.70;99.90
3528;DHT22;1778;47.966;7.854;2023-04-29T05:52:41;13.70;99.90
3528;DHT22;1778;47.966;7.854;2023-04-29T05:53:42;13.70;99.90
3528;DHT22;1778;47.966;7.854;2023-04-29T05:54:44;13.70;99.90
3528;DHT22;1778;47.966;7.854;2023-04-29T05:55:46;13.80;99.90
3528;DHT22;1778;47.966;7.854;2023-04-29T05:56:50;13.80;99.90
3528;DHT22;1778;47.966;7.854;2023-04-29T05:57:52;13.80;99.90
3528;DHT22;1778;47.966;7.854;2023-04-29T05:58:54;13.80;99.90
3528;DHT22;1778;47.966;7.854;2023-04-29T05:59:55;13.80;99.90
3528;DHT22;1778;47.966;7.854;2023-04-29T06:00:57;13.80;99.90
3528;DHT22;1778;47.966;7.854;2023-04-29T06:02:00;13.80;99.90
3528;DHT22;1778;47.966;7.854;2023-04-29T06:03:02;13.90;99.90
3528;DHT22;1778;47.966;7.854;2023-04-29T06:04:04;13.80;99.90
3528;DHT22;1778;47.966;7.854;2023-04-29T06:05:26;13.80;99.90
3528;DHT22;1778;47.966;7.854;2023-04-29T06:07:01;13.90;99.90
3528;DHT22;1778;47.966;7.854;2023-04-29T06:08:35;13.90;99.90
3528;DHT22;1778;47.966;7.854;2023-04-29T06:09:44;13.90;99.90
3528;DHT22;1778;47.966;7.854;2023-04-29T06:10:46;13.90;99.90
3528;DHT22;1778;47.966;7.854;2023-04-29T06:11:48;14.00;99.90
3528;DHT22;1778;47.966;7.854;2023-04-29T06:12:49;14.00;99.90
3528;DHT22;1778;47.966;7.854;2023-04-29T06:13:52;14.10;99.90
3528;DHT22;1778;47.966;7.854;2023-04-29T06:14:53;14.10;99.90
3528;DHT22;1778;47.966;7.854;2023-04-29T06:15:55;14.10;99.90
3528;DHT22;1778;47.966;7.854;2023-04-29T06:16:57;14.20;99.90
3528;DHT22;1778;47.966;7.854;2023-04-29T06:18:00;14.20;99.90
3528;DHT22;1778;47.966;7.854;2023-04-29T06:19:01;14.20;99.90
3528;DHT22;1778;47.966;7.854;2023-04-29T06:20:03;14.30;99.90
3528;DHT22;1778;47.966;7.854;2023-04-29T06:21:05;14.30;99.90
3528;DHT22;1778;47.966;7.854;2023-04-29T06:22:06;14.40;99.90
3528;DHT22;1778;47.966;7.854;2023-04-29T06:23:08;14.40;99.90
3528;DHT22;1778;47.966;7.854;2023-04-29T06:24:10;14.40;99.90
3528;DHT22;1778;47.966;7.854;2023-04-29T06:25:12;14.40;99.90
3528;DHT22;1778;47.966;7.854;2023-04-29T06:26:20;14.50;99.90
3528;DHT22;1778;47.966;7.854;2023-04-29T06:27:22;14.50;99.90
3528;DHT22;1778;47.966;7.854;2023-04-29T06:28:24;14.50;99.90
3528;DHT22;1778;47.966;7.854;2023-04-29T06:29:25;14.50;99.90
3528;DHT22;1778;47.966;7.854;2023-04-29T06:30:27;14.50;99.90
3528;DHT22;1778;47.966;7.854;2023-04-29T06:31:29;14.50;99.90
3528;DHT22;1778;47.966;7.854;2023-04-29T06:32:34;14.60;99.90
3528;DHT22;1778;47.966;7.854;2023-04-29T06:33:36;14.70;99.90
3528;DHT22;1778;47.966;7.854;2023-04-29T06:34:38;14.70;99.90
3528;DHT22;1778;47.966;7.854;2023-04-29T06:35:57;14.70;99.90
3528;DHT22;1778;47.966;7.854;2023-04-29T06:37:30;14.70;99.90
3528;DHT22;1778;47.966;7.854;2023-04-29T06:38:55;14.60;99.90
3528;DHT22;1778;47.966;7.854;2023-04-29T06:40:20;14.70;99.90
3528;DHT22;1778;47.966;7.854;2023-04-29T06:41:47;14.70;99.90
3528;DHT22;1778;47.966;7.854;2023-04-29T06:43:08;14.70;99.90
3528;DHT22;1778;47.966;7.854;2023-04-29T06:44:28;14.70;99.90
3528;DHT22;1778;47.966;7.854;2023-04-29T06:45:52;14.80;99.90
3528;DHT22;1778;47.966;7.854;2023-04-29T06:46:58;14.80;99.90
3528;DHT22;1778;47.966;7.854;2023-04-29T06:48:13;14.80;99.90
3528;DHT22;1778;47.966;7.854;2023-04-29T06:49:21;14.80;99.90
3528;DHT22;1778;47.966;7.854;2023-04-29T06:50:24;14.70;99.90
3528;DHT22;1778;47.966;7.854;2023-04-29T06:51:26;14.60;99.90
3528;DHT22;1778;47.966;7.854;2023-04-29T06:52:31;14.50;99.90
3528;DHT22;1778;47.966;7.854;2023-04-29T06:53:33;14.50;99.90
3528;DHT22;1778;47.966;7.854;2023-04-29T06:54:35;14.50;99.90
3528;DHT22;1778;47.966;7.854;2023-04-29T06:55:37;14.50;99.90
3528;DHT22;1778;47.966;7.854;2023-04-29T06:56:38;14.50;99.90
3528;DHT22;1778;47.966;7.854;2023-04-29T06:57:40;14.50;99.90
3528;DHT22;1778;47.966;7.854;2023-04-29T06:58:42;14.50;99.90
3528;DHT22;1778;47.966;7.854;2023-04-29T06:59:44;14.50;99.90
3528;DHT22;1778;47.966;7.854;2023-04-29T07:00:47;14.70;99.90
3528;DHT22;1778;47.966;7.854;2023-04-29T07:01:50;14.70;99.90
3528;DHT22;1778;47.966;7.854;2023-04-29T07:02:53;14.80;99.90
3528;DHT22;1778;47.966;7.854;2023-04-29T07:03:56;14.80;99.90
3528;DHT22;1778;47.966;7.854;2023-04-29T07:04:59;14.80;99.90
3528;DHT22;1778;47.966;7.854;2023-04-29T07:06:01;14.90;99.90
3528;DHT22;1778;47.966;7.854;2023-04-29T07:07:03;14.90;99.90
3528;DHT22;1778;47.966;7.854;2023-04-29T07:08:05;15.00;99.90
3528;DHT22;1778;47.966;7.854;2023-04-29T07:09:07;15.00;99.90
3528;DHT22;1778;47.966;7.854;2023-04-29T07:10:10;15.00;99.90
3528;DHT22;1778;47.966;7.854;2023-04-29T07:11:12;15.10;99.90